Time;durP1;ratioP1;P1;durP2;ratioP2;P2;SDS_P1;SDS_P2;PMS_P1;PMS_P2;Temp;Humidity;BMP_temperature;BMP_pressure;BME280_temperature;BME280_humidity;BME280_pressure;Samples;Min_cycle;Max_cycle;Signal;HPM_P1;HPM_P2
2023/08/18 00:02:02;;;;;;;;;17.75;16.25;;;;;25.91;49.61;100968.28;4976340;28;45311;-39
2023/08/18 00:04:28;;;;;;;;;16.00;13.75;;;;;25.91;49.92;100967.44;4976646;28;45560;-36
2023/08/18 00:06:54;;;;;;;;;21.00;15.00;;;;;25.90;49.80;100960.47;4976537;28;45594;-42
2023/08/18 00:09:20;;;;;;;;;13.50;13.00;;;;;25.91;49.74;100963.00;4976287;28;45707;-37
2023/08/18 00:11:45;;;;;;;;;16.50;15.25;;;;;25.91;49.99;100956.81;4976394;28;45422;-37
2023/08/18 00:14:10;;;;;;;;;19.75;16.00;;;;;25.90;50.13;100953.31;4976539;28;45304;-37
2023/08/18 00:16:36;;;;;;;;;17.00;16.00;;;;;25.89;50.04;100951.63;4976270;28;45188;-37
2023/08/18 00:19:01;;;;;;;;;15.25;14.50;;;;;25.90;49.76;100952.50;4976299;28;45254;-44
2023/08/18 00:21:26;;;;;;;;;18.50;17.00;;;;;25.90;49.75;100957.81;4960234;28;45350;-40
2023/08/18 00:23:52;;;;;;;;;17.50;15.25;;;;;25.89;49.78;100964.06;4979802;28;45264;-36
2023/08/18 00:26:17;;;;;;;;;18.25;14.00;;;;;25.88;50.08;100957.91;4979388;28;45263;-35
2023/08/18 00:28:42;;;;;;;;;11.50;10.00;;;;;25.88;50.16;100955.25;4979526;28;45566;-37
2023/08/18 00:31:07;;;;;;;;;17.50;16.50;;;;;25.89;50.06;100959.59;4979605;28;45373;-41
2023/08/18 00:33:33;;;;;;;;;15.50;15.25;;;;;25.89;49.91;100950.81;4979768;28;45312;-40
2023/08/18 00:35:58;;;;;;;;;17.50;12.75;;;;;25.88;50.05;100949.94;4979289;28;57688;-43
2023/08/18 00:38:23;;;;;;;;;15.50;13.75;;;;;25.88;50.03;100944.63;4979389;28;45384;-40
2023/08/18 00:40:49;;;;;;;;;16.75;14.00;;;;;25.88;50.32;100947.28;4978784;28;59254;-37
2023/08/18 00:43:14;;;;;;;;;14.75;14.75;;;;;25.87;50.42;100942.94;4979527;28;45327;-37
2023/08/18 00:45:39;;;;;;;;;17.50;15.25;;;;;25.88;50.21;100936.66;4979125;28;45448;-41
2023/08/18 00:48:06;;;;;;;;;21.25;16.25;;;;;25.88;50.11;100938.47;4979202;28;45460;-37
2023/08/18 00:50:31;;;;;;;;;16.75;15.50;;;;;25.87;50.05;100940.28;4979385;28;45278;-38
2023/08/18 00:52:58;;;;;;;;;17.25;15.50;;;;;25.87;50.17;100942.94;4979686;28;45705;-44
2023/08/18 00:55:26;;;;;;;;;14.25;14.25;;;;;25.87;50.22;100940.28;4978889;28;46876;-44
2023/08/18 00:57:53;;;;;;;;;18.50;17.50;;;;;25.89;50.19;100940.19;4979067;28;45394;-41
2023/08/18 01:00:23;;;;;;;;;15.25;14.25;;;;;25.88;50.42;100934.00;4978118;28;45634;-40
2023/08/18 01:02:48;;;;;;;;;22.50;18.25;;;;;25.87;50.32;100928.81;4979228;28;45508;-41
2023/08/18 01:05:14;;;;;;;;;18.00;16.75;;;;;25.87;50.50;100937.63;4978829;28;45352;-37
2023/08/18 01:07:39;;;;;;;;;21.50;17.75;;;;;25.87;50.77;100934.97;4978828;28;45268;-40
2023/08/18 01:10:05;;;;;;;;;20.00;15.75;;;;;25.86;50.59;100932.44;4978929;28;45299;-38
2023/08/18 01:12:56;;;;;;;;;18.75;17.75;;;;;25.87;50.45;100934.13;4979422;28;45256;-39
2023/08/18 01:15:35;;;;;;;;;16.00;14.50;;;;;25.87;50.64;100934.97;4978943;28;45590;-43
2023/08/18 01:18:01;;;;;;;;;19.75;16.50;;;;;25.87;50.41;100934.97;4979227;28;45287;-39
2023/08/18 01:20:28;;;;;;;;;19.25;17.00;;;;;25.87;50.46;100929.66;4978791;28;45367;-39
2023/08/18 01:22:56;;;;;;;;;14.50;14.50;;;;;25.85;50.95;100920.13;4977659;28;45263;-37
2023/08/18 01:25:21;;;;;;;;;18.75;18.25;;;;;25.86;50.73;100916.50;4978593;28;46009;-36
2023/08/18 01:27:47;;;;;;;;;18.25;16.50;;;;;25.85;50.74;100920.97;4978503;28;45317;-38
2023/08/18 01:30:13;;;;;;;;;13.75;13.75;;;;;25.86;50.67;100927.13;4978806;28;45401;-37
2023/08/18 01:33:03;;;;;;;;;19.25;19.00;;;;;25.86;50.62;100916.50;4977718;28;45508;-37
2023/08/18 01:35:29;;;;;;;;;15.75;13.75;;;;;25.85;50.66;100920.97;4978722;28;46034;-41
2023/08/18 01:37:56;;;;;;;;;22.75;17.50;;;;;25.86;50.63;100916.50;4978449;28;45872;-40
2023/08/18 01:40:25;;;;;;;;;16.50;15.50;;;;;25.85;50.58;100918.31;4978575;28;45409;-38
2023/08/18 01:42:52;;;;;;;;;17.50;16.25;;;;;25.86;50.63;100921.81;4978651;28;45207;-37
2023/08/18 01:45:18;;;;;;;;;18.00;15.75;;;;;25.86;50.54;100916.50;4978191;28;46985;-38
2023/08/18 01:47:43;;;;;;;;;17.50;17.00;;;;;25.84;50.56;100916.63;4978301;28;45260;-39
2023/08/18 01:50:09;;;;;;;;;16.75;15.00;;;;;25.85;50.40;100909.50;4978531;28;45262;-42
2023/08/18 01:52:35;;;;;;;;;19.00;15.50;;;;;25.84;50.92;100913.97;4978538;28;45386;-39
2023/08/18 01:55:00;;;;;;;;;18.75;15.00;;;;;25.85;50.72;100915.66;4978455;28;45449;-39
2023/08/18 01:57:26;;;;;;;;;17.00;14.75;;;;;25.85;50.56;100904.19;4978146;28;45385;-41
2023/08/18 01:59:51;;;;;;;;;19.25;15.50;;;;;25.85;50.77;100905.03;4978150;28;45959;-40
2023/08/18 02:02:16;;;;;;;;;25.50;17.25;;;;;25.85;50.68;100904.19;4977983;28;45552;-37
2023/08/18 02:04:42;;;;;;;;;19.25;17.00;;;;;25.85;50.77;100898.88;4976446;28;49279;-38
2023/08/18 02:07:07;;;;;;;;;17.00;17.00;;;;;25.84;51.11;100903.38;4977907;28;45436;-35
2023/08/18 02:09:32;;;;;;;;;18.25;16.00;;;;;25.83;50.67;100896.38;4978350;28;45369;-37
2023/08/18 02:11:59;;;;;;;;;18.50;16.50;;;;;25.83;51.29;100901.66;4978024;28;45324;-35
2023/08/18 02:14:24;;;;;;;;;24.75;18.75;;;;;25.84;51.30;100898.06;4976562;28;46402;-36
2023/08/18 02:16:50;;;;;;;;;15.75;15.25;;;;;25.83;50.57;100896.38;4977718;28;45236;-38
2023/08/18 02:19:15;;;;;;;;;19.50;17.00;;;;;25.83;51.19;100891.06;4977902;28;45255;-35
2023/08/18 02:21:40;;;;;;;;;16.75;13.75;;;;;25.83;51.25;100891.06;4977968;28;45389;-37
2023/08/18 02:24:06;;;;;;;;;18.50;17.75;;;;;25.83;50.83;100885.75;4976929;28;46054;-38
2023/08/18 02:26:31;;;;;;;;;22.25;17.00;;;;;25.83;50.80;100896.38;4978081;28;45331;-36
2023/08/18 02:28:56;;;;;;;;;16.25;15.25;;;;;25.83;50.92;100891.06;4977761;28;45285;-39
2023/08/18 02:31:22;;;;;;;;;21.25;18.00;;;;;25.83;50.89;100896.38;4977956;28;45183;-37
2023/08/18 02:33:47;;;;;;;;;18.00;15.75;;;;;25.82;51.14;100894.66;4977374;28;48755;-39
2023/08/18 02:36:13;;;;;;;;;18.25;18.25;;;;;25.84;51.12;100894.53;4977609;28;45315;-41
2023/08/18 02:38:38;;;;;;;;;19.75;15.25;;;;;25.83;51.08;100893.72;4976414;28;45325;-36
2023/08/18 02:41:04;;;;;;;;;17.75;15.75;;;;;25.82;51.15;100888.50;4976924;28;45306;-39
2023/08/18 02:43:29;;;;;;;;;21.00;14.00;;;;;25.83;50.79;100891.06;4976918;28;46387;-39
2023/08/18 02:45:58;;;;;;;;;17.25;16.75;;;;;25.83;51.15;100885.75;4977231;28;45377;-39
2023/08/18 02:48:27;;;;;;;;;16.50;16.50;;;;;25.84;51.04;100876.81;4977545;28;45409;-37
2023/08/18 02:51:01;;;;;;;;;18.00;15.75;;;;;25.83;51.02;100877.78;4977611;28;45580;-37
2023/08/18 02:53:27;;;;;;;;;21.00;16.00;;;;;25.83;51.52;100879.56;4977167;28;47163;-41
2023/08/18 02:55:54;;;;;;;;;17.00;16.50;;;;;25.83;51.17;100884.88;4977073;28;45653;-39
2023/08/18 02:58:19;;;;;;;;;17.25;16.00;;;;;25.83;51.34;100882.22;4977368;28;45436;-40
2023/08/18 03:00:44;;;;;;;;;18.00;18.00;;;;;25.82;51.38;100873.44;4976971;28;50200;-39
2023/08/18 03:03:10;;;;;;;;;19.50;17.50;;;;;25.82;51.46;100870.78;4976534;28;62391;-44
2023/08/18 03:05:37;;;;;;;;;21.00;16.50;;;;;25.81;51.46;100869.09;4976966;28;54025;-42
2023/08/18 03:08:02;;;;;;;;;24.50;18.75;;;;;25.82;50.84;100862.81;4977168;28;45429;-45
2023/08/18 03:10:28;;;;;;;;;16.25;14.75;;;;;25.82;51.42;100864.59;4977368;28;45366;-41
2023/08/18 03:12:53;;;;;;;;;17.25;14.25;;;;;25.81;51.44;100866.44;4976361;28;60611;-46
2023/08/18 03:15:18;;;;;;;;;13.00;12.00;;;;;25.81;51.14;100861.13;4959517;28;45922;-45
2023/08/18 03:17:43;;;;;;;;;17.25;16.00;;;;;25.81;51.47;100855.81;4976792;28;50486;-38
2023/08/18 03:20:09;;;;;;;;;12.75;9.50;;;;;25.80;51.04;100859.41;4977269;28;45837;-38
2023/08/18 03:22:35;;;;;;;;;18.00;16.00;;;;;25.81;51.48;100858.47;4976873;28;46203;-40
2023/08/18 03:25:01;;;;;;;;;20.25;16.25;;;;;25.81;51.03;100852.28;4976884;28;45270;-38
2023/08/18 03:27:27;;;;;;;;;19.25;16.00;;;;;25.80;51.39;100848.81;4976858;28;45269;-37
2023/08/18 03:29:52;;;;;;;;;18.25;17.00;;;;;25.82;51.07;100856.63;4976903;28;45485;-36
2023/08/18 03:32:17;;;;;;;;;17.25;15.75;;;;;25.81;51.15;100853.16;4976703;28;47139;-36
2023/08/18 03:34:43;;;;;;;;;20.25;18.00;;;;;25.81;51.02;100849.63;4976687;28;45169;-38
2023/08/18 03:37:09;;;;;;;;;21.25;17.00;;;;;25.81;51.06;100850.50;4977185;28;45311;-40
2023/08/18 03:39:34;;;;;;;;;16.75;16.25;;;;;25.80;51.24;100846.16;4976669;28;45599;-37
2023/08/18 03:41:59;;;;;;;;;23.75;19.25;;;;;25.80;51.00;100838.19;4976301;28;54381;-38
2023/08/18 03:44:24;;;;;;;;;19.25;16.00;;;;;25.80;51.33;100834.69;4976482;28;47891;-40
2023/08/18 03:46:50;;;;;;;;;18.75;17.00;;;;;25.81;51.33;100839.00;4976674;28;45279;-46
2023/08/18 03:49:15;;;;;;;;;21.00;16.67;;;;;25.80;50.92;100835.53;4976139;28;56953;-44
2023/08/18 03:51:40;;;;;;;;;17.25;16.50;;;;;25.79;51.07;100833.84;4976393;28;60496;-41
2023/08/18 03:54:06;;;;;;;;;16.75;15.00;;;;;25.78;51.37;100830.34;4976539;28;45370;-43
2023/08/18 03:56:31;;;;;;;;;20.50;17.25;;;;;25.80;51.66;100840.84;4977840;28;45439;-44
2023/08/18 03:58:56;;;;;;;;;18.00;15.25;;;;;25.78;51.55;100835.66;4980274;28;45323;-41
2023/08/18 04:01:21;;;;;;;;;19.00;16.75;;;;;25.79;51.28;100831.19;4978419;28;53727;-41
2023/08/18 04:03:48;;;;;;;;;21.75;18.50;;;;;25.79;51.23;100831.19;4979501;28;51729;-42
2023/08/18 04:06:14;;;;;;;;;20.75;19.00;;;;;25.78;51.68;100821.53;4978773;28;45468;-41
2023/08/18 04:08:41;;;;;;;;;18.75;16.50;;;;;25.78;51.30;100830.34;4980531;28;45532;-36
2023/08/18 04:11:06;;;;;;;;;20.00;19.50;;;;;25.79;51.46;100833.84;4979552;28;46057;-39
2023/08/18 04:13:32;;;;;;;;;17.75;15.00;;;;;25.78;51.51;100833.00;4979741;28;45692;-37
2023/08/18 04:15:57;;;;;;;;;19.75;18.25;;;;;25.79;51.52;100836.50;4979704;28;45235;-38
2023/08/18 04:18:23;;;;;;;;;18.50;17.25;;;;;25.78;51.49;100840.97;4979995;28;45655;-37
2023/08/18 04:20:48;;;;;;;;;20.25;19.00;;;;;25.77;51.92;100831.31;4979800;28;45379;-36
2023/08/18 04:23:14;;;;;;;;;15.50;14.00;;;;;25.77;51.25;100843.72;4979665;28;45266;-38
2023/08/18 04:25:42;;;;;;;;;19.50;18.00;;;;;25.79;51.46;100836.50;4979944;28;45282;-36
2023/08/18 04:28:08;;;;;;;;;17.50;17.00;;;;;25.79;51.52;100836.50;4979913;28;45412;-36
2023/08/18 04:30:33;;;;;;;;;21.00;20.00;;;;;25.79;51.69;100833.84;4979451;28;45460;-36
2023/08/18 04:32:58;;;;;;;;;18.00;16.50;;;;;25.78;51.51;100822.38;4978016;28;47084;-36
2023/08/18 04:35:23;;;;;;;;;22.67;17.33;;;;;25.79;51.55;100820.56;4978884;28;62660;-35
2023/08/18 04:37:49;;;;;;;;;20.50;17.50;;;;;25.79;51.82;100812.59;4979687;28;45441;-38
2023/08/18 04:40:14;;;;;;;;;18.25;16.50;;;;;25.79;51.84;100815.25;4978958;28;60818;-38
2023/08/18 04:42:39;;;;;;;;;22.00;17.50;;;;;25.78;51.85;100811.75;4979626;28;45298;-37
2023/08/18 04:45:05;;;;;;;;;19.25;18.00;;;;;25.80;51.80;100816.94;4979522;28;45292;-36
2023/08/18 04:47:31;;;;;;;;;20.25;17.50;;;;;25.78;51.73;100819.72;4979667;28;45382;-36
2023/08/18 04:49:56;;;;;;;;;17.00;16.25;;;;;25.79;51.67;100823.22;4979107;28;48205;-36
2023/08/18 04:52:22;;;;;;;;;17.25;14.50;;;;;25.78;51.87;100818.88;4978629;28;61446;-37
2023/08/18 04:54:48;;;;;;;;;20.00;18.25;;;;;25.78;51.70;100821.53;4978247;28;45231;-36
2023/08/18 04:57:13;;;;;;;;;20.25;18.25;;;;;25.80;52.26;100816.13;4979615;28;45535;-37
2023/08/18 04:59:38;;;;;;;;;22.00;18.75;;;;;25.79;51.62;100815.25;4978687;28;62201;-41
2023/08/18 05:02:04;;;;;;;;;18.25;18.00;;;;;25.78;52.19;100814.41;4979149;28;45292;-44
2023/08/18 05:04:29;;;;;;;;;19.25;17.75;;;;;25.77;52.21;100814.53;4979068;28;45430;-42
2023/08/18 05:06:54;;;;;;;;;22.00;17.00;;;;;25.76;52.19;100815.47;4979268;28;45507;-36
2023/08/18 05:09:20;;;;;;;;;21.25;16.50;;;;;25.75;52.33;100814.66;4978472;28;62585;-37
2023/08/18 05:11:45;;;;;;;;;18.25;16.75;;;;;25.76;51.99;100818.13;4979146;28;45361;-37
2023/08/18 05:14:11;;;;;;;;;21.50;18.25;;;;;25.75;52.32;100808.47;4979086;28;45355;-42
2023/08/18 05:16:37;;;;;;;;;21.50;20.00;;;;;25.76;52.32;100815.47;4979081;28;45421;-39
2023/08/18 05:19:02;;;;;;;;;19.25;16.50;;;;;25.74;51.85;100807.66;4978636;28;45404;-38
2023/08/18 05:21:28;;;;;;;;;16.25;15.50;;;;;25.74;52.29;100807.66;4961139;28;45333;-39
2023/08/18 05:23:53;;;;;;;;;22.25;19.00;;;;;25.74;52.06;100806.81;4978220;28;51850;-40
2023/08/18 05:26:18;;;;;;;;;18.75;17.00;;;;;25.73;52.32;100802.47;4978735;28;45366;-40
2023/08/18 05:28:44;;;;;;;;;19.75;17.50;;;;;25.72;52.93;100804.25;4978877;28;45431;-38
2023/08/18 05:31:10;;;;;;;;;20.25;17.75;;;;;25.72;52.66;100793.66;4978633;28;45358;-39
2023/08/18 05:33:36;;;;;;;;;21.00;17.75;;;;;25.72;52.74;100795.47;4978782;28;45177;-37
2023/08/18 05:36:03;;;;;;;;;19.50;16.25;;;;;25.72;52.74;100795.47;4978861;28;45297;-42
2023/08/18 05:38:29;;;;;;;;;19.75;18.50;;;;;25.72;52.67;100798.13;4978465;28;45470;-39
2023/08/18 05:41:04;;;;;;;;;18.75;18.25;;;;;25.73;52.65;100795.34;4978115;28;52801;-38
2023/08/18 05:43:29;;;;;;;;;24.00;17.75;;;;;25.73;52.74;100791.84;4978367;28;45563;-37
2023/08/18 05:45:55;;;;;;;;;22.75;19.25;;;;;25.72;52.97;100793.66;4978388;28;45532;-37
2023/08/18 05:48:20;;;;;;;;;21.50;17.50;;;;;25.73;52.72;100789.19;4978293;28;46287;-39
2023/08/18 05:50:46;;;;;;;;;19.25;18.00;;;;;25.73;52.58;100797.16;4978498;28;50691;-40
2023/08/18 05:53:11;;;;;;;;;19.25;17.75;;;;;25.73;52.86;100790.03;4978421;28;45395;-36
2023/08/18 05:55:37;;;;;;;;;20.75;18.75;;;;;25.73;53.42;100794.50;4978441;28;45620;-37
2023/08/18 05:58:03;;;;;;;;;20.50;17.75;;;;;25.72;52.86;100796.31;4978146;28;45959;-36
2023/08/18 06:00:30;;;;;;;;;23.00;17.75;;;;;25.73;52.93;100799.81;4978370;28;45988;-42
2023/08/18 06:02:56;;;;;;;;;20.50;15.75;;;;;25.72;53.08;100793.66;4978154;28;45330;-38
2023/08/18 06:05:28;;;;;;;;;18.75;16.00;;;;;25.72;53.30;100784.84;4978320;28;45393;-40
2023/08/18 06:07:55;;;;;;;;;20.75;19.75;;;;;25.73;53.56;100795.34;4978161;28;46955;-40
2023/08/18 06:10:20;;;;;;;;;24.75;19.00;;;;;25.74;53.87;100793.53;4978162;28;45385;-39
2023/08/18 06:12:46;;;;;;;;;20.50;19.25;;;;;25.72;53.30;100783.03;4978521;28;45333;-38
2023/08/18 06:15:12;;;;;;;;;18.75;18.00;;;;;25.75;53.51;100787.25;4978379;28;45479;-38
2023/08/18 06:17:37;;;;;;;;;19.00;17.25;;;;;25.72;53.93;100782.19;4977844;28;46871;-37
2023/08/18 06:20:03;;;;;;;;;21.50;18.50;;;;;25.71;54.00;100785.81;4977272;28;45357;-39
2023/08/18 06:22:29;;;;;;;;;22.00;19.25;;;;;25.68;53.95;100786.91;4977735;28;45383;-37
2023/08/18 06:24:54;;;;;;;;;22.00;19.25;;;;;25.67;54.31;100790.53;4977984;28;45523;-36
2023/08/18 06:27:19;;;;;;;;;21.50;17.00;;;;;25.67;54.39;100787.00;4978008;28;47339;-38
2023/08/18 06:29:45;;;;;;;;;21.25;19.25;;;;;25.67;54.63;100789.66;4977356;28;55476;-38
2023/08/18 06:32:10;;;;;;;;;24.50;20.25;;;;;25.64;54.39;100782.78;4977908;28;45321;-40
2023/08/18 06:34:35;;;;;;;;;21.50;18.75;;;;;25.65;54.69;100778.31;4978028;28;45317;-40
2023/08/18 06:37:02;;;;;;;;;22.75;19.00;;;;;25.66;54.51;100777.34;4977516;28;46039;-42
2023/08/18 06:39:27;;;;;;;;;24.00;21.75;;;;;25.65;54.98;100781.84;4977571;28;45891;-37
2023/08/18 06:41:52;;;;;;;;;19.50;17.50;;;;;25.65;54.96;100783.63;4977595;28;45350;-39
2023/08/18 06:44:18;;;;;;;;;18.00;15.25;;;;;25.65;55.11;100784.50;4960488;28;45425;-36
2023/08/18 06:46:43;;;;;;;;;18.50;18.50;;;;;25.66;54.89;100785.31;4975922;28;45314;-38
2023/08/18 06:49:08;;;;;;;;;22.25;17.00;;;;;25.66;54.51;100790.63;4977352;28;45302;-41
2023/08/18 06:51:34;;;;;;;;;22.50;18.00;;;;;25.66;54.82;100787.97;4977543;28;45374;-40
2023/08/18 06:53:59;;;;;;;;;24.25;19.00;;;;;25.67;54.87;100776.41;4977667;28;45915;-37
2023/08/18 06:56:24;;;;;;;;;18.25;17.00;;;;;25.66;54.96;100780.00;4977360;28;46390;-39
2023/08/18 06:58:50;;;;;;;;;19.00;16.75;;;;;25.66;55.09;100782.66;4977587;28;45220;-40
2023/08/18 07:01:15;;;;;;;;;20.50;16.50;;;;;25.66;55.58;100787.97;4975752;28;45421;-39
2023/08/18 07:03:40;;;;;;;;;22.00;19.50;;;;;25.63;54.91;100784.59;4976565;28;45540;-35
2023/08/18 07:06:06;;;;;;;;;19.75;15.25;;;;;25.64;55.39;100790.75;4976146;28;45503;-38
2023/08/18 07:08:32;;;;;;;;;21.00;19.50;;;;;25.64;55.33;100790.75;4976302;28;45477;-41
2023/08/18 07:10:58;;;;;;;;;22.50;18.50;;;;;25.63;55.25;100789.91;4976552;28;45520;-41
2023/08/18 07:13:23;;;;;;;;;19.75;18.25;;;;;25.66;55.72;100787.97;4976872;28;45457;-37
2023/08/18 07:15:49;;;;;;;;;19.00;15.75;;;;;25.66;55.59;100788.84;4967246;28;46051;-39
2023/08/18 07:18:16;;;;;;;;;20.25;19.00;;;;;25.66;55.59;100796.78;4976380;28;45527;-36
2023/08/18 07:20:43;;;;;;;;;21.75;19.00;;;;;25.67;55.13;100789.66;4976186;28;45462;-40
2023/08/18 07:23:08;;;;;;;;;17.50;17.00;;;;;25.67;55.50;100793.19;4967172;28;45338;-39
2023/08/18 07:25:33;;;;;;;;;21.25;19.75;;;;;25.69;55.68;100793.06;4976139;28;45455;-37
2023/08/18 07:27:59;;;;;;;;;23.50;16.25;;;;;25.68;55.62;100792.22;4976185;28;45380;-37
2023/08/18 07:30:24;;;;;;;;;18.50;16.50;;;;;25.67;55.80;100795.84;4982184;28;45314;-38
2023/08/18 07:32:50;;;;;;;;;20.25;20.25;;;;;25.67;55.85;100789.66;4976882;28;45258;-42
2023/08/18 07:35:15;;;;;;;;;22.00;19.25;;;;;25.67;55.41;100792.31;4991980;28;46103;-42
2023/08/18 07:37:40;;;;;;;;;20.00;17.50;;;;;25.67;56.25;100797.63;4976844;28;45274;-39
2023/08/18 07:40:09;;;;;;;;;19.25;19.25;;;;;25.68;55.82;100799.31;4976932;28;45481;-39
2023/08/18 07:42:35;;;;;;;;;25.00;20.75;;;;;25.66;55.93;100802.09;4976925;28;45540;-39
2023/08/18 07:45:00;;;;;;;;;25.50;21.25;;;;;25.68;55.92;100801.97;4976646;28;45422;-40
2023/08/18 07:47:26;;;;;;;;;21.00;18.75;;;;;25.66;56.25;100809.22;4976634;28;45524;-38
2023/08/18 07:49:51;;;;;;;;;23.75;16.25;;;;;25.66;56.05;100803.91;4976676;28;49692;-41
2023/08/18 07:52:17;;;;;;;;;22.75;20.25;;;;;25.66;56.47;100815.38;4976955;28;45384;-41
2023/08/18 07:54:42;;;;;;;;;22.00;19.50;;;;;25.66;56.64;100801.25;4976563;28;46322;-39
2023/08/18 07:57:07;;;;;;;;;26.00;21.00;;;;;25.66;56.29;100801.25;4975913;28;60801;-37
2023/08/18 07:59:33;;;;;;;;;22.25;19.00;;;;;25.67;55.85;100806.44;4976771;28;45360;-36
2023/08/18 08:01:58;;;;;;;;;23.00;18.00;;;;;25.70;56.28;100805.34;4975387;28;45505;-40
2023/08/18 08:04:23;;;;;;;;;23.50;19.75;;;;;25.69;56.34;100814.28;4976552;28;45408;-38
2023/08/18 08:06:49;;;;;;;;;23.25;20.75;;;;;25.69;56.30;100822.25;4976464;28;45320;-39
2023/08/18 08:09:15;;;;;;;;;21.25;18.50;;;;;25.70;56.89;100811.50;4976513;28;45305;-36
2023/08/18 08:11:40;;;;;;;;;20.00;18.50;;;;;25.72;56.54;100814.06;4976753;28;45472;-36
2023/08/18 08:14:06;;;;;;;;;21.75;19.75;;;;;25.74;56.42;100820.94;4976259;28;46198;-37
2023/08/18 08:16:35;;;;;;;;;24.25;22.25;;;;;25.76;56.16;100815.47;4976368;28;45210;-39
2023/08/18 08:19:03;;;;;;;;;21.25;19.00;;;;;25.76;56.61;100815.47;4976382;28;45368;-36
2023/08/18 08:21:28;;;;;;;;;22.00;18.25;;;;;25.78;56.78;100808.25;4991381;28;45515;-41
2023/08/18 08:23:53;;;;;;;;;21.00;17.75;;;;;25.80;56.85;100806.31;4976399;28;46248;-39
2023/08/18 08:26:19;;;;;;;;;20.25;19.00;;;;;25.81;56.53;100808.00;4976182;28;45416;-41
2023/08/18 08:28:44;;;;;;;;;18.75;17.25;;;;;25.82;56.40;100804.41;4976158;28;45309;-41
2023/08/18 08:31:09;;;;;;;;;24.25;21.25;;;;;25.84;56.17;100818.41;4976193;28;45354;-40
2023/08/18 08:33:36;;;;;;;;;18.50;17.75;;;;;25.87;56.16;100815.50;4975957;28;46540;-38
2023/08/18 14:33:29;;;;;;;;;13.50;13.00;;;;;26.41;56.23;100645.63;5916310;22;46363;-42
2023/08/18 14:35:54;;;;;;;;;14.25;12.00;;;;;26.42;56.30;100641.16;4977494;28;45450;-41
2023/08/18 14:38:19;;;;;;;;;14.50;13.00;;;;;26.43;56.28;100641.03;4977409;28;51845;-44
2023/08/18 14:40:45;;;;;;;;;15.25;13.25;;;;;26.43;56.46;100641.03;4959396;28;61195;-50
2023/08/18 14:43:10;;;;;;;;;15.75;14.75;;;;;26.44;56.73;100634.75;4977551;28;45956;-48
2023/08/18 14:45:35;;;;;;;;;17.25;15.50;;;;;26.46;56.68;100639.94;4977028;28;45377;-47
2023/08/18 14:48:01;;;;;;;;;16.00;14.75;;;;;26.46;56.79;100637.28;4977483;28;52384;-44
2023/08/18 14:50:26;;;;;;;;;14.50;13.50;;;;;26.46;56.89;100635.47;4977950;28;45492;-49
2023/08/18 14:52:52;;;;;;;;;13.25;13.00;;;;;26.48;57.08;100624.69;4976288;28;46015;-50
2023/08/18 14:55:17;;;;;;;;;13.75;12.50;;;;;26.48;57.14;100620.25;4977179;28;62240;-45
2023/08/18 14:57:42;;;;;;;;;16.75;16.75;;;;;26.51;56.89;100627.94;4977675;28;45717;-51
2023/08/18 15:00:09;;;;;;;;;13.25;13.25;;;;;26.50;57.07;100610.34;4960331;28;45668;-44
2023/08/18 15:02:35;;;;;;;;;16.75;14.75;;;;;26.52;57.43;100611.00;4976951;28;45431;-49
2023/08/18 15:05:01;;;;;;;;;17.00;13.25;;;;;26.53;57.54;100607.38;4977263;28;45404;-48
2023/08/18 15:07:26;;;;;;;;;18.50;14.50;;;;;26.53;57.80;100612.72;4977492;28;45432;-47
2023/08/18 15:09:52;;;;;;;;;13.75;12.00;;;;;26.54;57.88;100603.75;4977626;28;45745;-47
2023/08/18 15:12:17;;;;;;;;;16.00;16.00;;;;;26.57;57.84;100604.47;4975556;28;63138;-51
2023/08/18 15:14:42;;;;;;;;;18.50;16.25;;;;;26.58;57.72;100604.34;4977268;28;45405;-50
2023/08/18 15:17:08;;;;;;;;;17.50;16.25;;;;;26.57;57.76;100599.16;4977302;28;45369;-48
2023/08/18 15:19:33;;;;;;;;;15.00;14.25;;;;;26.58;58.06;100592.88;4959967;28;45406;-50
2023/08/18 15:21:58;;;;;;;;;16.00;14.75;;;;;26.61;57.67;100597.94;4976997;28;45310;-47
2023/08/18 15:24:23;;;;;;;;;13.75;12.75;;;;;26.60;57.76;100593.59;4976889;28;45334;-45
2023/08/18 15:26:49;;;;;;;;;20.50;16.00;;;;;26.60;57.83;100596.25;4976287;28;45384;-46
2023/08/18 15:29:14;;;;;;;;;15.50;15.50;;;;;26.59;57.63;100595.41;4977517;28;45511;-48
2023/08/18 15:31:39;;;;;;;;;15.75;15.75;;;;;26.60;57.90;100598.91;4976842;28;46108;-49
2023/08/18 15:34:05;;;;;;;;;16.00;14.25;;;;;26.61;57.77;100588.13;4976121;28;65112;-48
2023/08/18 15:36:31;;;;;;;;;18.00;17.75;;;;;26.61;57.91;100593.44;4976951;28;45378;-41
2023/08/18 15:39:04;;;;;;;;;16.25;15.25;;;;;26.61;58.15;100582.81;4977120;28;45496;-49
2023/08/18 15:41:32;;;;;;;;;17.50;15.00;;;;;26.64;57.92;100589.69;4975348;28;46078;-47
2023/08/18 15:43:58;;;;;;;;;20.25;16.75;;;;;26.63;57.92;100580.03;4976656;28;45768;-44
2023/08/18 15:46:23;;;;;;;;;14.75;14.75;;;;;26.65;58.23;100588.72;4976914;28;45413;-47
2023/08/18 15:48:48;;;;;;;;;16.00;16.00;;;;;26.64;57.81;100587.88;4976828;28;50305;-51
2023/08/18 15:51:13;;;;;;;;;14.75;14.25;;;;;26.65;58.01;100583.41;4976066;28;61693;-47
2023/08/18 15:53:39;;;;;;;;;16.50;16.00;;;;;26.65;58.16;100581.59;4979318;28;54715;-43
2023/08/18 15:56:04;;;;;;;;;16.75;15.25;;;;;26.66;57.99;100585.94;4979832;28;51381;-48
2023/08/18 15:58:29;;;;;;;;;16.25;15.00;;;;;26.65;57.83;100578.94;4979925;28;50548;-47
2023/08/18 16:00:57;;;;;;;;;19.00;17.00;;;;;26.67;57.52;100576.13;4980028;28;45372;-47
2023/08/18 16:03:22;;;;;;;;;13.25;13.25;;;;;26.66;57.85;100575.31;4979466;28;45645;-44
2023/08/18 16:05:48;;;;;;;;;17.00;15.75;;;;;26.67;57.79;100581.44;4979994;28;45293;-50
2023/08/18 16:08:13;;;;;;;;;16.00;16.00;;;;;26.66;57.63;100571.78;4980283;28;45270;-49
2023/08/18 16:10:42;;;;;;;;;15.25;14.25;;;;;26.67;57.92;100562.84;4979593;28;54539;-50
2023/08/18 16:13:08;;;;;;;;;17.25;15.75;;;;;26.67;58.05;100560.19;4979938;28;45850;-50
2023/08/18 16:15:34;;;;;;;;;16.00;15.50;;;;;26.67;57.78;100554.88;4978320;28;51442;-49
2023/08/18 16:18:00;;;;;;;;;16.00;15.00;;;;;26.68;57.85;100556.56;4980229;28;45333;-46
2023/08/18 16:20:25;;;;;;;;;15.00;15.00;;;;;26.68;57.76;100553.91;4979746;28;46015;-49
2023/08/18 16:22:51;;;;;;;;;17.00;15.00;;;;;26.67;57.83;100553.06;4979954;28;45437;-47
2023/08/18 16:25:20;;;;;;;;;17.25;15.75;;;;;26.67;57.84;100554.88;4979922;28;45519;-41
2023/08/18 16:27:49;;;;;;;;;18.75;14.25;;;;;26.67;57.92;100554.88;4980107;28;45608;-39
2023/08/18 16:30:15;;;;;;;;;17.75;15.75;;;;;26.68;57.58;100562.69;4962159;28;46256;-43
2023/08/18 16:32:41;;;;;;;;;15.50;14.00;;;;;26.68;57.63;100562.69;4979725;28;45392;-45
2023/08/18 16:35:08;;;;;;;;;17.25;13.75;;;;;26.68;57.78;100557.38;4979515;28;45297;-44
2023/08/18 16:37:33;;;;;;;;;19.75;13.25;;;;;26.70;57.67;100559.94;4979813;28;45238;-48
2023/08/18 16:39:59;;;;;;;;;14.00;14.00;;;;;26.69;57.46;100552.94;4979612;28;45873;-49
2023/08/18 16:42:24;;;;;;;;;19.25;16.25;;;;;26.68;57.54;100546.75;4979451;28;45266;-44
2023/08/18 16:44:50;;;;;;;;;17.50;15.75;;;;;26.68;57.27;100546.75;4979749;28;45393;-48
2023/08/18 16:47:15;;;;;;;;;16.00;14.75;;;;;26.69;57.33;100542.28;4978336;28;45415;-50
2023/08/18 16:49:40;;;;;;;;;15.00;13.75;;;;;26.67;57.36;100537.13;4979433;28;45465;-51
2023/08/18 16:52:06;;;;;;;;;16.00;15.00;;;;;26.69;57.26;100540.47;4979358;28;45190;-47
2023/08/18 16:54:31;;;;;;;;;16.25;14.00;;;;;26.70;56.89;100549.28;4979142;28;48932;-49
2023/08/18 16:57:00;;;;;;;;;17.50;15.75;;;;;26.69;57.27;100547.63;4979569;28;45571;-46
2023/08/18 16:59:26;;;;;;;;;15.75;14.25;;;;;26.67;57.02;100544.25;4979220;28;46399;-42
2023/08/18 17:01:52;;;;;;;;;18.00;16.50;;;;;26.69;57.03;100550.28;4979471;28;45694;-50